Southern Sonoma County Latest

20 Stations

15 Minute Data
as of 9/1/26 4:55 PM PDT
Station Date Time Temp (°F) RH (%) Dew Pt (°F) Wind Spd (mph) Wind Dir (°) Wind Gust (mph) Latest Rain (In) Daily Rain (In) Daily Min Temp (°F) Daily Max Temp (°F)
Upper Rincon Valley 9/1/26 1645 65.5   3.6 59   4 50.8   1.5 2.8   1.2 SSW | 211 8.1   1.0 0.00 0.00 53.4   5.3 72.3   0.8
Lower Bennett Valley 9/1/26 1645 69.2   0.8 53   5 51.6   1.7 7.9   0.0 WNW | 284 14.4   0.9 0.00 0.00 50.2   8.8 73.2   1.5
Kenwood (Wildwood) 9/1/26 1645 69.8   0.6 50   6 50.1   2.7 5.3   1.0 NNW | 339 13.7   1.4 0.00 0.00 56.0   10.4 75.0   0.2
Crane Creek (Ranch 62) 9/1/26 1645 73.8   4.0 44   11 50.7   2.4 1.3   3.4 WSW | 250 5.6   5.0 0.00 0.00 54.7   5.9 75.2   2.9
Rohnert Park-West (Stony Point) 9/1/26 1645 68.2   0.2 61   2 54.3   1.1 8.5   0.2 SW | 234 18.6   2.0 0.00 0.00 56.1   14.9 73.2   1.5
Rice-Spivak Vineyard 9/1/26 1645 68.7   1.0 - - - - - - - 56.6   18.1 74.5   1.9
Cartograph Wines Base 9/1/26 1645 66.8   0.5 66   3 55.3   0.9 7.6   2.9 SSW | 210 18.8   2.5 0.00 0.00 56.0   6.8 71.2   1.4
Cartograph Wines Remote 9/1/26 1645 67.6   1.2 - - - - - - - 56.4   10.9 74.1   4.7
Penngrove (Asellus) 9/1/26 1645 70.3   2.9 46   13 48.8   3.8 7.0   0.2 WSW | 248 14.7   0.3 0.00 0.00 56.9   11.9 74.5   2.3
Sonoma Valley (Bedrock) 9/1/26 1645 70.7   0.6 44   5 47.5   3.7 - - - 0.00 0.00 54.4   9.6 73.2   1.5
Sonoma-West (Arnold) 9/1/26 1645 71.2   1.5 43   11 47.5   4.8 6.1   3.2 WSW | 250 13.6   3.6 0.00 0.00 54.7   9.7 77.8   3.8
Sonoma Valley HS 9/1/26 1645 69.6   0.6 54   8 52.1   3.1 3.9   2.8 WSW | 256 8.6   5.6 0.00 0.00 55.4   7.2 75.7   3.0
Sonoma East (Bundschu01) 9/1/26 1645 69.9   0.2 47   7 48.8   3.7 6.1   3.6 W | 276 14.9   5.9 0.00 0.00 53.2   7.8 76.0   2.9
Sonoma-SE (Napoli) 9/1/26 1645 72.1   1.1 44   8 48.8   3.3 6.0   3.6 WSW | 250 13.5   4.7 0.00 0.00 56.8   11.2 77.2   2.7
Schellville (Sasaki) 2/7/26 1900 53.4   2.2 88   10 49.9   1.0 3.3   1.8 SW | 225 5.8   4.0 0.00 0.00 47.0   0.8 62.8   8.4
Petaluma (Ranch 10) 9/1/26 1645 69.5   0.7 51   6 50.7   2.5 5.5   2.7 WSW | 246 11.6   4.3 0.00 0.00 58.4   13.6 74.6   3.5
Carneros (Ranch 71) 9/1/26 1645 71.0   3.0 46   11 49.1   3.2 11.4   4.1 WSW | 256 18.0   8.9 0.00 0.00 56.7   5.5 74.4   2.2
Ricci Vineyards (Carneros) 9/1/26 1645 70.2   0.4 48   7 49.6   3.4 7.6   3.0 WSW | 253 12.8   5.0 0.00 0.00 58.0   11.9 77.8   3.5
Carneros Upper (Ranch 81) 9/1/26 1645 72.1   2.8 43   11 48.2   3.8 15.0   4.0 WSW | 252 22.1   7.5 - - 56.9   4.8 73.8   0.8
Carneros Lower (Ranch 81) 9/1/26 1645 77.8   4.5 38   12 50.4   3.5 1.0   0.6 SSW | 206 6.4   0.8 0.00 0.00 57.1   7.0 78.6   1.0
Max     77.8 66 55.3 15.0 - 22.1 0.00 0.00 58.4 78.6
Avg     70.2 49 50.3 6.4 - 13.5 0.00 - - -
Min     65.5 38 47.5 1.0 - 5.6 0.00 0.00 50.2 71.2